Time,TemperatureF,DewpointF,PressureIn,WindDirection,WindDirectionDegrees,WindSpeedMPH,WindSpeedGustMPH,Humidity,HourlyPrecipIn,Conditions,Clouds,dailyrainin,SoftwareType,DateUTC
2013-03-19 00:00:00,26.1,20.8,-100.00,North,-999,-999.0,-999.0,80,-99.99,,,-99.99,,2013-03-19 04:00:00,
2013-03-19 00:10:00,26.1,20.8,-100.00,North,-999,-999.0,-999.0,80,-99.99,,,-99.99,,2013-03-19 04:10:00,
2013-03-19 00:20:00,25.9,20.3,-100.00,North,-999,-999.0,-999.0,79,-99.99,,,-99.99,,2013-03-19 04:20:00,
2013-03-19 00:30:00,25.9,20.7,-100.00,North,-999,-999.0,-999.0,80,-99.99,,,-99.99,,2013-03-19 04:30:00,
2013-03-19 00:40:00,25.9,20.7,-100.00,North,-999,-999.0,-999.0,80,-99.99,,,-99.99,,2013-03-19 04:40:00,
2013-03-19 00:50:00,25.9,20.8,-100.00,North,-999,-999.0,-999.0,81,-99.99,,,-99.99,,2013-03-19 04:50:00,
2013-03-19 01:00:00,25.7,20.5,-100.00,North,-999,-999.0,-999.0,80,-99.99,,,-99.99,,2013-03-19 05:00:00,
2013-03-19 01:10:00,25.7,20.7,-100.00,North,-999,-999.0,-999.0,81,-99.99,,,-99.99,,2013-03-19 05:10:00,
2013-03-19 01:20:00,25.7,20.7,-100.00,North,-999,-999.0,-999.0,81,-99.99,,,-99.99,,2013-03-19 05:20:00,
2013-03-19 01:30:00,25.7,21.0,-100.00,North,-999,-999.0,-999.0,82,-99.99,,,-99.99,,2013-03-19 05:30:00,
2013-03-19 01:40:00,25.7,20.7,-100.00,North,-999,-999.0,-999.0,81,-99.99,,,-99.99,,2013-03-19 05:40:00,
2013-03-19 01:50:00,25.7,21.0,-100.00,North,-999,-999.0,-999.0,82,-99.99,,,-99.99,,2013-03-19 05:50:00,
2013-03-19 02:00:00,25.6,20.8,-100.00,North,-999,-999.0,-999.0,82,-99.99,,,-99.99,,2013-03-19 06:00:00,
2013-03-19 02:10:00,25.6,20.8,-100.00,North,-999,-999.0,-999.0,82,-99.99,,,-99.99,,2013-03-19 06:10:00,
2013-03-19 02:20:00,25.4,20.5,-100.00,North,-999,-999.0,-999.0,81,-99.99,,,-99.99,,2013-03-19 06:20:00,
2013-03-19 02:30:00,25.4,20.7,-100.00,North,-999,-999.0,-999.0,82,-99.99,,,-99.99,,2013-03-19 06:30:00,
2013-03-19 02:40:00,25.4,20.7,-100.00,North,-999,-999.0,-999.0,82,-99.99,,,-99.99,,2013-03-19 06:40:00,
2013-03-19 02:50:00,25.6,20.8,-100.00,North,-999,-999.0,-999.0,82,-99.99,,,-99.99,,2013-03-19 06:50:00,
2013-03-19 03:00:00,25.6,20.8,-100.00,North,-999,-999.0,-999.0,82,-99.99,,,-99.99,,2013-03-19 07:00:00,
2013-03-19 03:10:00,25.6,21.2,-100.00,North,-999,-999.0,-999.0,83,-99.99,,,-99.99,,2013-03-19 07:10:00,
2013-03-19 03:20:00,25.6,21.2,-100.00,North,-999,-999.0,-999.0,83,-99.99,,,-99.99,,2013-03-19 07:20:00,
2013-03-19 03:30:00,25.6,21.2,-100.00,North,-999,-999.0,-999.0,83,-99.99,,,-99.99,,2013-03-19 07:30:00,
2013-03-19 03:40:00,25.6,21.2,-100.00,North,-999,-999.0,-999.0,83,-99.99,,,-99.99,,2013-03-19 07:40:00,
2013-03-19 03:50:00,25.7,21.2,-100.00,North,-999,-999.0,-999.0,83,-99.99,,,-99.99,,2013-03-19 07:50:00,
2013-03-19 04:00:00,25.7,21.2,-100.00,North,-999,-999.0,-999.0,83,-99.99,,,-99.99,,2013-03-19 08:00:00,
2013-03-19 04:10:00,25.9,21.4,-100.00,North,-999,-999.0,-999.0,83,-99.99,,,-99.99,,2013-03-19 08:10:00,
2013-03-19 04:20:00,25.9,21.4,-100.00,North,-999,-999.0,-999.0,83,-99.99,,,-99.99,,2013-03-19 08:20:00,
2013-03-19 04:30:00,25.9,21.7,-100.00,North,-999,-999.0,-999.0,84,-99.99,,,-99.99,,2013-03-19 08:30:00,
2013-03-19 04:40:00,26.1,21.9,-100.00,North,-999,-999.0,-999.0,84,-99.99,,,-99.99,,2013-03-19 08:40:00,
2013-03-19 04:50:00,25.9,21.7,-100.00,North,-999,-999.0,-999.0,84,-99.99,,,-99.99,,2013-03-19 08:50:00,
2013-03-19 05:00:00,25.9,22.1,-100.00,North,-999,-999.0,-999.0,85,-99.99,,,-99.99,,2013-03-19 09:00:00,
2013-03-19 05:10:00,25.9,22.1,-100.00,North,-999,-999.0,-999.0,85,-99.99,,,-99.99,,2013-03-19 09:10:00,
2013-03-19 05:20:00,25.9,22.1,-100.00,North,-999,-999.0,-999.0,85,-99.99,,,-99.99,,2013-03-19 09:20:00,
2013-03-19 05:30:00,25.9,22.1,-100.00,North,-999,-999.0,-999.0,85,-99.99,,,-99.99,,2013-03-19 09:30:00,
2013-03-19 05:40:00,26.1,22.5,-100.00,North,-999,-999.0,-999.0,86,-99.99,,,-99.99,,2013-03-19 09:40:00,
2013-03-19 05:50:00,26.1,22.3,-100.00,North,-999,-999.0,-999.0,85,-99.99,,,-99.99,,2013-03-19 09:50:00,
2013-03-19 06:00:00,26.3,22.5,-100.00,North,-999,-999.0,-999.0,85,-99.99,,,-99.99,,2013-03-19 10:00:00,
2013-03-19 06:10:00,26.3,22.6,-100.00,North,-999,-999.0,-999.0,86,-99.99,,,-99.99,,2013-03-19 10:10:00,
2013-03-19 06:20:00,26.5,22.8,-100.00,North,-999,-999.0,-999.0,86,-99.99,,,-99.99,,2013-03-19 10:20:00,
2013-03-19 06:30:00,26.5,22.8,-100.00,North,-999,-999.0,-999.0,86,-99.99,,,-99.99,,2013-03-19 10:30:00,
2013-03-19 06:40:00,26.6,23.2,-100.00,North,-999,-999.0,-999.0,87,-99.99,,,-99.99,,2013-03-19 10:40:00,
2013-03-19 06:50:00,26.8,23.5,-100.00,North,-999,-999.0,-999.0,87,-99.99,,,-99.99,,2013-03-19 10:50:00,
2013-03-19 07:00:00,27.0,23.7,-100.00,North,-999,-999.0,-999.0,87,-99.99,,,-99.99,,2013-03-19 11:00:00,
2013-03-19 07:10:00,27.2,23.9,-100.00,North,-999,-999.0,-999.0,87,-99.99,,,-99.99,,2013-03-19 11:10:00,
2013-03-19 07:20:00,27.5,24.4,-100.00,North,-999,-999.0,-999.0,88,-99.99,,,-99.99,,2013-03-19 11:20:00,
2013-03-19 07:30:00,27.5,24.4,-100.00,North,-999,-999.0,-999.0,88,-99.99,,,-99.99,,2013-03-19 11:30:00,
2013-03-19 07:40:00,27.9,24.8,-100.00,North,-999,-999.0,-999.0,88,-99.99,,,-99.99,,2013-03-19 11:40:00,
2013-03-19 07:50:00,28.1,25.0,-100.00,North,-999,-999.0,-999.0,88,-99.99,,,-99.99,,2013-03-19 11:50:00,
2013-03-19 08:00:00,28.4,25.3,-100.00,North,-999,-999.0,-999.0,88,-99.99,,,-99.99,,2013-03-19 12:00:00,
2013-03-19 08:10:00,28.4,25.3,-100.00,North,-999,-999.0,-999.0,88,-99.99,,,-99.99,,2013-03-19 12:10:00,
2013-03-19 08:20:00,28.6,25.5,-100.00,North,-999,-999.0,-999.0,88,-99.99,,,-99.99,,2013-03-19 12:20:00,
2013-03-19 08:30:00,29.0,25.9,-100.00,North,-999,-999.0,-999.0,88,-99.99,,,-99.99,,2013-03-19 12:30:00,
2013-03-19 08:40:00,29.3,25.9,-100.00,North,-999,-999.0,-999.0,87,-99.99,,,-99.99,,2013-03-19 12:40:00,
2013-03-19 08:50:00,29.3,25.9,-100.00,North,-999,-999.0,-999.0,87,-99.99,,,-99.99,,2013-03-19 12:50:00,
2013-03-19 09:00:00,29.5,26.1,-100.00,North,-999,-999.0,-999.0,87,-99.99,,,-99.99,,2013-03-19 13:00:00,
2013-03-19 09:10:00,29.7,26.2,-100.00,North,-999,-999.0,-999.0,87,-99.99,,,-99.99,,2013-03-19 13:10:00,
2013-03-19 09:20:00,30.2,26.8,-100.00,North,-999,-999.0,-999.0,87,-99.99,,,-99.99,,2013-03-19 13:20:00,
2013-03-19 09:30:00,30.6,27.1,-100.00,North,-999,-999.0,-999.0,87,-99.99,,,-99.99,,2013-03-19 13:30:00,
2013-03-19 09:40:00,30.8,27.3,-100.00,North,-999,-999.0,-999.0,87,-99.99,,,-99.99,,2013-03-19 13:40:00,
2013-03-19 09:50:00,31.0,27.7,-100.00,North,-999,-999.0,-999.0,87,-99.99,,,-99.99,,2013-03-19 13:50:00,
2013-03-19 10:00:00,31.3,27.7,-100.00,North,-999,-999.0,-999.0,86,-99.99,,,-99.99,,2013-03-19 14:00:00,
2013-03-19 10:10:00,31.1,27.5,-100.00,North,-999,-999.0,-999.0,86,-99.99,,,-99.99,,2013-03-19 14:10:00,
2013-03-19 10:20:00,31.5,27.9,-100.00,North,-999,-999.0,-999.0,86,-99.99,,,-99.99,,2013-03-19 14:20:00,
2013-03-19 10:30:00,31.3,27.7,-100.00,North,-999,-999.0,-999.0,86,-99.99,,,-99.99,,2013-03-19 14:30:00,
2013-03-19 10:40:00,32.8,29.1,-100.00,North,-999,-999.0,-999.0,86,-99.99,,,-99.99,,2013-03-19 14:40:00,
2013-03-19 10:50:00,34.2,30.2,-100.00,North,-999,-999.0,-999.0,85,-99.99,,,-99.99,,2013-03-19 14:50:00,
2013-03-19 11:00:00,34.6,30.2,-100.00,North,-999,-999.0,-999.0,84,-99.99,,,-99.99,,2013-03-19 15:00:00,
2013-03-19 11:10:00,34.9,30.6,-100.00,North,-999,-999.0,-999.0,84,-99.99,,,-99.99,,2013-03-19 15:10:00,
2013-03-19 11:20:00,35.1,30.4,-100.00,North,-999,-999.0,-999.0,83,-99.99,,,-99.99,,2013-03-19 15:20:00,
2013-03-19 11:30:00,37.3,32.0,-100.00,North,-999,-999.0,-999.0,81,-99.99,,,-99.99,,2013-03-19 15:30:00,
2013-03-19 11:40:00,36.5,30.9,-100.00,North,-999,-999.0,-999.0,80,-99.99,,,-99.99,,2013-03-19 15:40:00,
2013-03-19 11:50:00,34.9,29.7,-100.00,North,-999,-999.0,-999.0,81,-99.99,,,-99.99,,2013-03-19 15:50:00,
2013-03-19 12:00:00,36.2,30.9,-100.00,North,-999,-999.0,-999.0,81,-99.99,,,-99.99,,2013-03-19 16:00:00,
2013-03-19 12:10:00,36.2,30.9,-100.00,North,-999,-999.0,-999.0,81,-99.99,,,-99.99,,2013-03-19 16:10:00,
2013-03-19 12:20:00,36.0,30.7,-100.00,North,-999,-999.0,-999.0,81,-99.99,,,-99.99,,2013-03-19 16:20:00,
2013-03-19 12:30:00,38.2,33.3,-100.00,North,-999,-999.0,-999.0,82,-99.99,,,-99.99,,2013-03-19 16:30:00,
2013-03-19 12:40:00,36.2,30.6,-100.00,North,-999,-999.0,-999.0,80,-99.99,,,-99.99,,2013-03-19 16:40:00,
2013-03-19 12:50:00,33.3,28.4,-100.00,North,-999,-999.0,-999.0,82,-99.99,,,-99.99,,2013-03-19 16:50:00,
2013-03-19 13:00:00,33.7,29.3,-100.00,North,-999,-999.0,-999.0,84,-99.99,,,-99.99,,2013-03-19 17:00:00,
2013-03-19 13:10:00,34.2,30.2,-100.00,North,-999,-999.0,-999.0,85,-99.99,,,-99.99,,2013-03-19 17:10:00,
2013-03-19 13:20:00,33.1,28.8,-100.00,North,-999,-999.0,-999.0,84,-99.99,,,-99.99,,2013-03-19 17:20:00,
2013-03-19 13:30:00,33.1,29.1,-100.00,North,-999,-999.0,-999.0,85,-99.99,,,-99.99,,2013-03-19 17:30:00,
2013-03-19 13:40:00,32.8,28.8,-100.00,North,-999,-999.0,-999.0,85,-99.99,,,-99.99,,2013-03-19 17:40:00,
2013-03-19 13:50:00,33.3,29.7,-100.00,North,-999,-999.0,-999.0,86,-99.99,,,-99.99,,2013-03-19 17:50:00,
2013-03-19 14:00:00,34.2,30.4,-100.00,North,-999,-999.0,-999.0,86,-99.99,,,-99.99,,2013-03-19 18:00:00,
2013-03-19 14:10:00,35.1,31.1,-100.00,North,-999,-999.0,-999.0,85,-99.99,,,-99.99,,2013-03-19 18:10:00,
2013-03-19 14:20:00,34.9,30.6,-100.00,North,-999,-999.0,-999.0,84,-99.99,,,-99.99,,2013-03-19 18:20:00,
2013-03-19 14:30:00,34.7,29.8,-100.00,North,-999,-999.0,-999.0,82,-99.99,,,-99.99,,2013-03-19 18:30:00,
2013-03-19 14:40:00,34.7,30.0,-100.00,North,-999,-999.0,-999.0,83,-99.99,,,-99.99,,2013-03-19 18:40:00,
2013-03-19 14:50:00,33.5,28.9,-100.00,North,-999,-999.0,-999.0,83,-99.99,,,-99.99,,2013-03-19 18:50:00,
2013-03-19 15:00:00,42.3,38.1,-100.00,North,-999,-999.0,-999.0,85,-99.99,,,-99.99,,2013-03-19 19:00:00,
2013-03-19 15:10:00,38.9,32.7,-100.00,North,-999,-999.0,-999.0,78,-99.99,,,-99.99,,2013-03-19 19:10:00,
2013-03-19 15:20:00,41.8,34.9,-100.00,North,-999,-999.0,-999.0,76,-99.99,,,-99.99,,2013-03-19 19:20:00,
2013-03-19 15:30:00,42.1,33.8,-100.00,North,-999,-999.0,-999.0,72,-99.99,,,-99.99,,2013-03-19 19:30:00,
2013-03-19 15:40:00,42.1,33.8,-100.00,North,-999,-999.0,-999.0,72,-99.99,,,-99.99,,2013-03-19 19:40:00,
2013-03-19 15:50:00,38.3,30.4,-100.00,North,-999,-999.0,-999.0,73,-99.99,,,-99.99,,2013-03-19 19:50:00,
2013-03-19 16:00:00,37.6,30.4,-100.00,North,-999,-999.0,-999.0,75,-99.99,,,-99.99,,2013-03-19 20:00:00,
2013-03-19 16:10:00,37.6,31.1,-100.00,North,-999,-999.0,-999.0,77,-99.99,,,-99.99,,2013-03-19 20:10:00,
2013-03-19 16:20:00,36.0,29.5,-100.00,North,-999,-999.0,-999.0,77,-99.99,,,-99.99,,2013-03-19 20:20:00,
2013-03-19 16:30:00,35.1,28.9,-100.00,North,-999,-999.0,-999.0,78,-99.99,,,-99.99,,2013-03-19 20:30:00,
2013-03-19 16:40:00,34.9,29.3,-100.00,North,-999,-999.0,-999.0,80,-99.99,,,-99.99,,2013-03-19 20:40:00,
2013-03-19 16:50:00,35.1,29.5,-100.00,North,-999,-999.0,-999.0,80,-99.99,,,-99.99,,2013-03-19 20:50:00,
2013-03-19 17:00:00,34.7,29.5,-100.00,North,-999,-999.0,-999.0,81,-99.99,,,-99.99,,2013-03-19 21:00:00,
2013-03-19 17:10:00,34.7,29.1,-100.00,North,-999,-999.0,-999.0,80,-99.99,,,-99.99,,2013-03-19 21:10:00,
2013-03-19 17:20:00,33.5,28.2,-100.00,North,-999,-999.0,-999.0,81,-99.99,,,-99.99,,2013-03-19 21:20:00,
2013-03-19 17:30:00,32.6,27.7,-100.00,North,-999,-999.0,-999.0,82,-99.99,,,-99.99,,2013-03-19 21:30:00,
2013-03-19 17:40:00,32.9,28.4,-100.00,North,-999,-999.0,-999.0,83,-99.99,,,-99.99,,2013-03-19 21:40:00,
2013-03-19 17:50:00,33.1,28.8,-100.00,North,-999,-999.0,-999.0,84,-99.99,,,-99.99,,2013-03-19 21:50:00,
2013-03-19 18:00:00,32.8,28.6,-100.00,North,-999,-999.0,-999.0,84,-99.99,,,-99.99,,2013-03-19 22:00:00,
2013-03-19 18:10:00,32.2,27.7,-100.00,North,-999,-999.0,-999.0,83,-99.99,,,-99.99,,2013-03-19 22:10:00,
2013-03-19 18:20:00,32.4,28.4,-100.00,North,-999,-999.0,-999.0,85,-99.99,,,-99.99,,2013-03-19 22:20:00,
2013-03-19 18:30:00,31.9,27.9,-100.00,North,-999,-999.0,-999.0,85,-99.99,,,-99.99,,2013-03-19 22:30:00,
2013-03-19 18:40:00,32.6,28.6,-100.00,North,-999,-999.0,-999.0,85,-99.99,,,-99.99,,2013-03-19 22:40:00,
2013-03-19 18:50:00,31.9,28.2,-100.00,North,-999,-999.0,-999.0,86,-99.99,,,-99.99,,2013-03-19 22:50:00,
2013-03-19 19:00:00,31.1,27.5,-100.00,North,-999,-999.0,-999.0,86,-99.99,,,-99.99,,2013-03-19 23:00:00,
2013-03-19 19:10:00,31.3,27.7,-100.00,North,-999,-999.0,-999.0,86,-99.99,,,-99.99,,2013-03-19 23:10:00,
2013-03-19 19:20:00,31.3,27.7,-100.00,North,-999,-999.0,-999.0,86,-99.99,,,-99.99,,2013-03-19 23:20:00,
2013-03-19 19:30:00,31.1,27.7,-100.00,North,-999,-999.0,-999.0,87,-99.99,,,-99.99,,2013-03-19 23:30:00,
2013-03-19 19:40:00,31.0,27.3,-100.00,North,-999,-999.0,-999.0,86,-99.99,,,-99.99,,2013-03-19 23:40:00,
2013-03-19 19:50:00,31.0,27.7,-100.00,North,-999,-999.0,-999.0,87,-99.99,,,-99.99,,2013-03-19 23:50:00,
2013-03-19 20:00:00,31.0,27.7,-100.00,North,-999,-999.0,-999.0,87,-99.99,,,-99.99,,2013-03-20 00:00:00,
2013-03-19 20:10:00,30.8,27.3,-100.00,North,-999,-999.0,-999.0,87,-99.99,,,-99.99,,2013-03-20 00:10:00,
2013-03-19 20:20:00,30.6,27.1,-100.00,North,-999,-999.0,-999.0,87,-99.99,,,-99.99,,2013-03-20 00:20:00,
2013-03-19 20:30:00,30.4,26.8,-100.00,North,-999,-999.0,-999.0,86,-99.99,,,-99.99,,2013-03-20 00:30:00,
2013-03-19 20:40:00,30.4,27.0,-100.00,North,-999,-999.0,-999.0,87,-99.99,,,-99.99,,2013-03-20 00:40:00,
2013-03-19 20:50:00,30.2,26.8,-100.00,North,-999,-999.0,-999.0,87,-99.99,,,-99.99,,2013-03-20 00:50:00,
2013-03-19 21:00:00,30.2,26.8,-100.00,North,-999,-999.0,-999.0,87,-99.99,,,-99.99,,2013-03-20 01:00:00,
2013-03-19 21:10:00,30.1,26.8,-100.00,North,-999,-999.0,-999.0,87,-99.99,,,-99.99,,2013-03-20 01:10:00,
2013-03-19 21:20:00,29.9,26.6,-100.00,North,-999,-999.0,-999.0,87,-99.99,,,-99.99,,2013-03-20 01:20:00,
2013-03-19 21:30:00,29.5,26.1,-100.00,North,-999,-999.0,-999.0,87,-99.99,,,-99.99,,2013-03-20 01:30:00,
2013-03-19 21:40:00,29.7,26.2,-100.00,North,-999,-999.0,-999.0,87,-99.99,,,-99.99,,2013-03-20 01:40:00,
2013-03-19 21:50:00,29.5,26.1,-100.00,North,-999,-999.0,-999.0,87,-99.99,,,-99.99,,2013-03-20 01:50:00,
2013-03-19 22:00:00,29.3,25.9,-100.00,North,-999,-999.0,-999.0,87,-99.99,,,-99.99,,2013-03-20 02:00:00,
2013-03-19 22:10:00,29.2,25.5,-100.00,North,-999,-999.0,-999.0,86,-99.99,,,-99.99,,2013-03-20 02:10:00,
2013-03-19 22:20:00,29.2,25.5,-100.00,North,-999,-999.0,-999.0,86,-99.99,,,-99.99,,2013-03-20 02:20:00,
2013-03-19 22:30:00,29.2,25.9,-100.00,North,-999,-999.0,-999.0,87,-99.99,,,-99.99,,2013-03-20 02:30:00,
2013-03-19 22:40:00,29.0,25.7,-100.00,North,-999,-999.0,-999.0,87,-99.99,,,-99.99,,2013-03-20 02:40:00,
2013-03-19 22:50:00,29.0,25.7,-100.00,North,-999,-999.0,-999.0,87,-99.99,,,-99.99,,2013-03-20 02:50:00,
2013-03-19 23:00:00,28.4,25.0,-100.00,North,-999,-999.0,-999.0,87,-99.99,,,-99.99,,2013-03-20 03:00:00,
2013-03-19 23:10:00,29.0,25.7,-100.00,North,-999,-999.0,-999.0,87,-99.99,,,-99.99,,2013-03-20 03:10:00,
2013-03-19 23:20:00,29.0,25.7,-100.00,North,-999,-999.0,-999.0,87,-99.99,,,-99.99,,2013-03-20 03:20:00,
2013-03-19 23:30:00,28.8,25.3,-100.00,North,-999,-999.0,-999.0,87,-99.99,,,-99.99,,2013-03-20 03:30:00,
2013-03-19 23:40:00,28.6,25.2,-100.00,North,-999,-999.0,-999.0,87,-99.99,,,-99.99,,2013-03-20 03:40:00,
2013-03-19 23:50:00,28.6,25.2,-100.00,North,-999,-999.0,-999.0,87,-99.99,,,-99.99,,2013-03-20 03:50:00,